Dauphin Barker Airport
CYDN : now visible

Airfield :











YOU CAN JOIN US ON...

 
LOGIN :

Register | Disclaimer

   EN    FR    IT 

 









Legend :    VFR   Marginal VFR   IFR   Intensive IFR   Very Intensive IFR
Visi :
Ceiling :
>= 8 km
>= 3000ft
5 to 8 km
1000 to 3000 ft
1500m to 5 km
500 to 1000 ft
800 to 1500m
200 to 500 ft
< 800m
< 200 ft
Symbols :   Thunderstorms  Fog  Heavy snow  Heavy precipitations  Wind > 20 kt






- Airport Elevation : 999 ft
- IATA code : YDN


CYDN - Dauphin Barker

CURRENT METAR :
  • 142000Z AUTO 27007KT 9SM CLR M23/M26 A3006 RMK SLP222

EXPIRED METARs :
  • 141900Z AUTO 27010KT 9SM CLR M23/M25 A3007 RMK SLP223
  • 141800Z AUTO 28009KT 9SM CLR M23/M26 A3009 RMK SLP229

TAF TAF CYDN
Valid from the 14 at 18:00 until the 15 at 06:00 UTC


141738Z 1418/1506 26007KT P6SM SKC RMK FCST BASED ON AUTO OBS. NXT FCST BY 150000Z



MET'MAP, your aeronautical weather chart ! - Copyright ORBIFLY December 2007 - Disclaimer

ORBIFLY MET'MAP TEAM :

Programming & Development : Alexandra Zaïnal
Concept & original design : Baudouin d'Aumeries
Assistance for programming : Marc-Olivier Méhu
Technical & hardware support : Manuel Goepfert

Contact : metmap@orbifly.com




SOURCES & CREDITS :

   NOAA       Earth
Advisory